Dong Gui 5 — BMKF — position and weather

sailwx.info

Track history (hours):
 
Tides and Currents Weather Stations Pressure Air Temp Water Temp Dewpoint Dewpoint Depression Visibility Wind Speed Wind Dir Waves Ship Positions

Dong Gui 5

Last reported at 2017-Nov-17 20:04 UTC. Time now 2017-Nov-23 20:48 UTC.
Position N 22°13' E 113°05'.

Length 61 m; draft 3 m.

Type: Tanker. MMSI: 412500730.

Date/timePositionNaut miles runAvg speedWind from/ knotsBaromVisibWave heightAir tempDewpointWater temp
2017-Nov-17 20:04N 22°13' E 113°05'0 5.8
2017-Nov-17 20:00N 22°13' E 113°05'3 6.2
2017-Nov-17 19:30N 22°10' E 113°06'18 6.2
2017-Nov-17 16:39N 21°53' E 113°12'1 6.7
2017-Nov-17 16:31N 21°53' E 113°13'1 2.0
2017-Nov-17 16:01N 21°53' E 113°14'0 0.0
2017-Nov-17 15:30N 21°53' E 113°14'0 0.0
2017-Nov-17 15:00N 21°53' E 113°14'0 0.0
2017-Nov-17 14:30N 21°53' E 113°14'0 0.0
2017-Nov-17 14:00N 21°53' E 113°14'0 0.0
2017-Nov-17 13:31N 21°53' E 113°14'0 0.0
2017-Nov-17 13:00N 21°53' E 113°14'0 0.0
2017-Nov-17 12:30N 21°53' E 113°14'0 0.1
2017-Nov-17 12:00N 21°53' E 113°14'0 0.1
2017-Nov-17 11:30N 21°53' E 113°14'0 0.0
2017-Nov-17 11:01N 21°53' E 113°14'0 0.0
2017-Nov-17 10:31N 21°53' E 113°14'0 0.0
2017-Nov-17 10:00N 21°53' E 113°14'0 0.0
2017-Nov-17 09:30N 21°53' E 113°14'0 0.0
2017-Nov-17 09:00N 21°53' E 113°14'0 0.1
2017-Nov-17 08:30N 21°53' E 113°14'0 0.1
2017-Nov-17 08:01N 21°53' E 113°14'0 0.0
2017-Nov-17 07:30N 21°53' E 113°14'0 0.0
2017-Nov-17 07:00N 21°53' E 113°14'0 0.1
2017-Nov-17 06:30N 21°53' E 113°14'0 0.1
2017-Nov-17 06:00N 21°53' E 113°14'0 0.0
2017-Nov-17 05:31N 21°53' E 113°14'0 0.0
2017-Nov-17 05:00N 21°53' E 113°14'3 6.9
2017-Nov-17 04:30N 21°55' E 113°11'610.1
2017-Nov-17 03:55N 21°59' E 113°07'7 9.5
2017-Nov-17 03:10N 22°06' E 113°06'3 9.7
2017-Nov-17 02:52N 22°09' E 113°06'3 9.0
2017-Nov-17 02:30N 22°12' E 113°06'  
2017-Nov-14 04:41N 22°13' E 113°07'1 6.2
2017-Nov-14 04:30N 22°12' E 113°06'3 6.6
2017-Nov-14 04:00N 22°09' E 113°06'14 6.7
2017-Nov-14 01:51N 21°55' E 113°11'2 7.4
2017-Nov-14 01:31N 21°53' E 113°13'2 3.2
2017-Nov-14 01:00N 21°53' E 113°14'0 0.0
2017-Nov-14 00:30N 21°53' E 113°14'0 0.0
2017-Nov-14 00:00N 21°53' E 113°14'0 0.1
2017-Nov-13 23:30N 21°53' E 113°14'0 0.0
2017-Nov-13 23:00N 21°53' E 113°14'0 0.1
2017-Nov-13 22:30N 21°53' E 113°14'0 0.0
2017-Nov-13 22:00N 21°53' E 113°14'50 2.5
2017-Nov-13 01:52N 22°43' E 113°05'410.3
2017-Nov-13 01:29N 22°47' E 113°04'27 0.6
2017-Nov-11 07:03N 22°21' E 113°13'0 5.7
2017-Nov-11 06:59N 22°21' E 113°12'8 6.8
2017-Nov-11 05:46N 22°13' E 113°08'2 7.9
2017-Nov-11 05:31N 22°12' E 113°06'4 7.4
2017-Nov-11 05:00N 22°09' E 113°06'15 7.0
2017-Nov-11 02:50N 21°54' E 113°11'2 6.7
2017-Nov-11 02:31N 21°53' E 113°13'1 1.7
2017-Nov-11 02:00N 21°53' E 113°14'0 0.0
2017-Nov-11 01:30N 21°53' E 113°14'0 0.0
2017-Nov-11 01:00N 21°53' E 113°14'0 0.0
2017-Nov-11 00:30N 21°53' E 113°14'0 0.0
2017-Nov-11 00:00N 21°53' E 113°14'0 0.1
2017-Nov-10 23:30N 21°53' E 113°14'0 0.1
2017-Nov-10 23:00N 21°53' E 113°14'0 0.0
2017-Nov-10 22:30N 21°53' E 113°14'0 0.0
2017-Nov-10 22:00N 21°53' E 113°14'0 0.0
2017-Nov-10 21:30N 21°53' E 113°14'0 0.0
2017-Nov-10 21:00N 21°53' E 113°14'0 0.0
2017-Nov-10 20:30N 21°53' E 113°14'0 0.0
2017-Nov-10 20:00N 21°53' E 113°14'0 0.1
2017-Nov-10 19:30N 21°53' E 113°14'0 0.1
2017-Nov-10 19:00N 21°53' E 113°14'0 0.1
2017-Nov-10 18:30N 21°53' E 113°14'0 0.1
2017-Nov-10 18:00N 21°53' E 113°14'0 0.0
2017-Nov-10 17:29N 21°53' E 113°14'0 0.1
2017-Nov-10 17:00N 21°53' E 113°14'0 0.1
2017-Nov-10 16:30N 21°53' E 113°14'0 0.0
2017-Nov-10 16:00N 21°53' E 113°14'0 0.0
2017-Nov-10 15:31N 21°53' E 113°14'3 0.5
2017-Nov-10 09:47N 21°54' E 113°11'0 0.0
2017-Nov-10 09:27N 21°54' E 113°11'0 0.0
2017-Nov-10 01:06N 21°54' E 113°11'0 0.0
2017-Nov-10 00:58N 21°54' E 113°11'0 0.0
2017-Nov-10 00:23N 21°54' E 113°11'15 3.2
2017-Nov-09 19:40N 22°08' E 113°06'2 9.9
2017-Nov-09 19:30N 22°10' E 113°06'4 7.1
2017-Nov-09 19:00N 22°13' E 113°07'1 0.0
2017-Nov-08 09:55N 22°12' E 113°06'5 7.6
2017-Nov-08 09:16N 22°07' E 113°06'13 7.5
2017-Nov-08 07:28N 21°55' E 113°11'3 7.0
2017-Nov-08 07:00N 21°53' E 113°14'0 0.4
2017-Nov-08 06:31N 21°53' E 113°14'0 0.1
2017-Nov-08 06:00N 21°53' E 113°14'0 0.1
2017-Nov-08 05:30N 21°53' E 113°14'0 0.1
2017-Nov-08 04:59N 21°53' E 113°14'0 0.1
2017-Nov-08 04:30N 21°53' E 113°14'0 0.0
2017-Nov-08 04:01N 21°53' E 113°14'0 0.0
2017-Nov-08 03:31N 21°53' E 113°14'0 0.0
2017-Nov-08 03:01N 21°53' E 113°14'0 0.0
2017-Nov-08 02:31N 21°53' E 113°14'0 0.0
2017-Nov-08 02:01N 21°53' E 113°14'0 0.0
2017-Nov-08 01:31N 21°53' E 113°14'0 0.0
2017-Nov-08 01:01N 21°53' E 113°14'0 0.1
2017-Nov-08 00:31N 21°53' E 113°14'0 0.0
2017-Nov-08 00:01N 21°53' E 113°14'0 0.0
2017-Nov-07 23:31N 21°53' E 113°14'0 0.0
2017-Nov-07 23:01N 21°53' E 113°14'0 0.0
2017-Nov-07 22:30N 21°53' E 113°14'0 0.1
2017-Nov-07 22:01N 21°53' E 113°14'0 0.0
2017-Nov-07 21:31N 21°53' E 113°14'0 0.0
2017-Nov-07 21:01N 21°53' E 113°14'0 0.0
2017-Nov-07 20:31N 21°53' E 113°14'  
Track history (hours):
 
Tides and Currents Weather Stations Pressure Air Temp Water Temp Dewpoint Dewpoint Depression Visibility Wind Speed Wind Dir Waves Ship Positions

Dong Gui 5

Last reported at 2017-Nov-17 20:04 UTC. Time now 2017-Nov-23 20:48 UTC.
Position N 22°13' E 113°05'.

Length 61 m; draft 3 m.

Type: Tanker. MMSI: 412500730.

Date/timePositionNaut miles runAvg speedWind from/ knotsBaromVisibWave heightAir tempDewpointWater temp
2017-Nov-17 20:04N 22°13' E 113°05'0 5.8
2017-Nov-17 20:00N 22°13' E 113°05'3 6.2
2017-Nov-17 19:30N 22°10' E 113°06'18 6.2
2017-Nov-17 16:39N 21°53' E 113°12'1 6.7
2017-Nov-17 16:31N 21°53' E 113°13'1 2.0
2017-Nov-17 16:01N 21°53' E 113°14'0 0.0
2017-Nov-17 15:30N 21°53' E 113°14'0 0.0
2017-Nov-17 15:00N 21°53' E 113°14'0 0.0
2017-Nov-17 14:30N 21°53' E 113°14'0 0.0
2017-Nov-17 14:00N 21°53' E 113°14'0 0.0
2017-Nov-17 13:31N 21°53' E 113°14'0 0.0
2017-Nov-17 13:00N 21°53' E 113°14'0 0.0
2017-Nov-17 12:30N 21°53' E 113°14'0 0.1
2017-Nov-17 12:00N 21°53' E 113°14'0 0.1
2017-Nov-17 11:30N 21°53' E 113°14'0 0.0
2017-Nov-17 11:01N 21°53' E 113°14'0 0.0
2017-Nov-17 10:31N 21°53' E 113°14'0 0.0
2017-Nov-17 10:00N 21°53' E 113°14'0 0.0
2017-Nov-17 09:30N 21°53' E 113°14'0 0.0
2017-Nov-17 09:00N 21°53' E 113°14'0 0.1
2017-Nov-17 08:30N 21°53' E 113°14'0 0.1
2017-Nov-17 08:01N 21°53' E 113°14'0 0.0
2017-Nov-17 07:30N 21°53' E 113°14'0 0.0
2017-Nov-17 07:00N 21°53' E 113°14'0 0.1
2017-Nov-17 06:30N 21°53' E 113°14'0 0.1
2017-Nov-17 06:00N 21°53' E 113°14'0 0.0
2017-Nov-17 05:31N 21°53' E 113°14'0 0.0
2017-Nov-17 05:00N 21°53' E 113°14'3 6.9
2017-Nov-17 04:30N 21°55' E 113°11'610.1
2017-Nov-17 03:55N 21°59' E 113°07'7 9.5
2017-Nov-17 03:10N 22°06' E 113°06'3 9.7
2017-Nov-17 02:52N 22°09' E 113°06'3 9.0
2017-Nov-17 02:30N 22°12' E 113°06'  
2017-Nov-14 04:41N 22°13' E 113°07'1 6.2
2017-Nov-14 04:30N 22°12' E 113°06'3 6.6
2017-Nov-14 04:00N 22°09' E 113°06'14 6.7
2017-Nov-14 01:51N 21°55' E 113°11'2 7.4
2017-Nov-14 01:31N 21°53' E 113°13'2 3.2
2017-Nov-14 01:00N 21°53' E 113°14'0 0.0
2017-Nov-14 00:30N 21°53' E 113°14'0 0.0
2017-Nov-14 00:00N 21°53' E 113°14'0 0.1
2017-Nov-13 23:30N 21°53' E 113°14'0 0.0
2017-Nov-13 23:00N 21°53' E 113°14'0 0.1
2017-Nov-13 22:30N 21°53' E 113°14'0 0.0
2017-Nov-13 22:00N 21°53' E 113°14'50 2.5
2017-Nov-13 01:52N 22°43' E 113°05'410.3
2017-Nov-13 01:29N 22°47' E 113°04'27 0.6
2017-Nov-11 07:03N 22°21' E 113°13'0 5.7
2017-Nov-11 06:59N 22°21' E 113°12'8 6.8
2017-Nov-11 05:46N 22°13' E 113°08'2 7.9
2017-Nov-11 05:31N 22°12' E 113°06'4 7.4
2017-Nov-11 05:00N 22°09' E 113°06'15 7.0
2017-Nov-11 02:50N 21°54' E 113°11'2 6.7
2017-Nov-11 02:31N 21°53' E 113°13'1 1.7
2017-Nov-11 02:00N 21°53' E 113°14'0 0.0
2017-Nov-11 01:30N 21°53' E 113°14'0 0.0
2017-Nov-11 01:00N 21°53' E 113°14'0 0.0
2017-Nov-11 00:30N 21°53' E 113°14'0 0.0
2017-Nov-11 00:00N 21°53' E 113°14'0 0.1
2017-Nov-10 23:30N 21°53' E 113°14'0 0.1
2017-Nov-10 23:00N 21°53' E 113°14'0 0.0
2017-Nov-10 22:30N 21°53' E 113°14'0 0.0
2017-Nov-10 22:00N 21°53' E 113°14'0 0.0
2017-Nov-10 21:30N 21°53' E 113°14'0 0.0
2017-Nov-10 21:00N 21°53' E 113°14'0 0.0
2017-Nov-10 20:30N 21°53' E 113°14'0 0.0
2017-Nov-10 20:00N 21°53' E 113°14'0 0.1
2017-Nov-10 19:30N 21°53' E 113°14'0 0.1
2017-Nov-10 19:00N 21°53' E 113°14'0 0.1
2017-Nov-10 18:30N 21°53' E 113°14'0 0.1
2017-Nov-10 18:00N 21°53' E 113°14'0 0.0
2017-Nov-10 17:29N 21°53' E 113°14'0 0.1
2017-Nov-10 17:00N 21°53' E 113°14'0 0.1
2017-Nov-10 16:30N 21°53' E 113°14'0 0.0
2017-Nov-10 16:00N 21°53' E 113°14'0 0.0
2017-Nov-10 15:31N 21°53' E 113°14'3 0.5
2017-Nov-10 09:47N 21°54' E 113°11'0 0.0
2017-Nov-10 09:27N 21°54' E 113°11'0 0.0
2017-Nov-10 01:06N 21°54' E 113°11'0 0.0
2017-Nov-10 00:58N 21°54' E 113°11'0 0.0
2017-Nov-10 00:23N 21°54' E 113°11'15 3.2
2017-Nov-09 19:40N 22°08' E 113°06'2 9.9
2017-Nov-09 19:30N 22°10' E 113°06'4 7.1
2017-Nov-09 19:00N 22°13' E 113°07'1 0.0
2017-Nov-08 09:55N 22°12' E 113°06'5 7.6
2017-Nov-08 09:16N 22°07' E 113°06'13 7.5
2017-Nov-08 07:28N 21°55' E 113°11'3 7.0
2017-Nov-08 07:00N 21°53' E 113°14'0 0.4
2017-Nov-08 06:31N 21°53' E 113°14'0 0.1
2017-Nov-08 06:00N 21°53' E 113°14'0 0.1
2017-Nov-08 05:30N 21°53' E 113°14'0 0.1
2017-Nov-08 04:59N 21°53' E 113°14'0 0.1
2017-Nov-08 04:30N 21°53' E 113°14'0 0.0
2017-Nov-08 04:01N 21°53' E 113°14'0 0.0
2017-Nov-08 03:31N 21°53' E 113°14'0 0.0
2017-Nov-08 03:01N 21°53' E 113°14'0 0.0
2017-Nov-08 02:31N 21°53' E 113°14'0 0.0
2017-Nov-08 02:01N 21°53' E 113°14'0 0.0
2017-Nov-08 01:31N 21°53' E 113°14'0 0.0
2017-Nov-08 01:01N 21°53' E 113°14'0 0.1
2017-Nov-08 00:31N 21°53' E 113°14'0 0.0
2017-Nov-08 00:01N 21°53' E 113°14'0 0.0
2017-Nov-07 23:31N 21°53' E 113°14'0 0.0
2017-Nov-07 23:01N 21°53' E 113°14'0 0.0
2017-Nov-07 22:30N 21°53' E 113°14'0 0.1
2017-Nov-07 22:01N 21°53' E 113°14'0 0.0
2017-Nov-07 21:31N 21°53' E 113°14'0 0.0
2017-Nov-07 21:01N 21°53' E 113°14'0 0.0
2017-Nov-07 20:31N 21°53' E 113°14'  

Dump ship's entire track history